createdAt,value
2023-03-26T00:00:02.028Z,1013.31
2023-03-26T00:16:02.063Z,1013.31
2023-03-26T00:31:02.057Z,1013.28
2023-03-26T00:46:02.121Z,1013.14
2023-03-26T01:00:01.988Z,1013.08
2023-03-26T01:16:02.132Z,1012.87
2023-03-26T01:31:02.054Z,1012.74
2023-03-26T01:46:02.006Z,1012.57
2023-03-26T02:00:01.988Z,1012.57
2023-03-26T02:16:02.075Z,1012.4
2023-03-26T02:31:02.072Z,1012.43
2023-03-26T02:46:02.034Z,1012.43
2023-03-26T03:00:01.928Z,1012.4
2023-03-26T03:16:02.031Z,1012.4
2023-03-26T03:31:02.080Z,1012.57
2023-03-26T03:46:02.070Z,1012.7
2023-03-26T04:00:02.450Z,1012.8
2023-03-26T04:16:02.031Z,1012.64
2023-03-26T04:31:02.376Z,1012.67
2023-03-26T04:46:02.042Z,1012.53
2023-03-26T05:00:02.070Z,1012.3
2023-03-26T05:16:02.021Z,1012.53
2023-03-26T05:31:02.007Z,1012.5
2023-03-26T05:46:02.065Z,1012.4
2023-03-26T06:00:02.014Z,1012.47
2023-03-26T06:16:02.007Z,1012.4
2023-03-26T06:31:02.003Z,1012.3
2023-03-26T06:46:02.838Z,1012.19
2023-03-26T07:00:01.961Z,1012.09
2023-03-26T07:16:02.012Z,1011.89
2023-03-26T07:31:01.955Z,1011.65
2023-03-26T07:46:02.147Z,1011.42
2023-03-26T08:00:02.010Z,1011.15
2023-03-26T08:16:01.980Z,1011.01
2023-03-26T08:31:01.972Z,1010.87
2023-03-26T08:46:02.043Z,1010.77
2023-03-26T09:00:02.920Z,1010.3
2023-03-26T09:16:02.019Z,1009.96
2023-03-26T09:31:01.959Z,1009.59
2023-03-26T09:46:02.012Z,1009.66
2023-03-26T10:00:01.957Z,1009.28
2023-03-26T10:16:01.952Z,1008.91
2023-03-26T10:31:02.029Z,1008.5
2023-03-26T10:46:02.004Z,1008.06
2023-03-26T11:00:01.938Z,1007.42
2023-03-26T11:16:01.970Z,1007.12
2023-03-26T11:31:01.979Z,1006.95
2023-03-26T11:46:02.320Z,1006.84
2023-03-26T12:00:01.959Z,1006.47
2023-03-26T12:16:01.953Z,1006.03
2023-03-26T12:31:01.962Z,1005.56
2023-03-26T12:47:26.480Z,1005.29
2023-03-26T13:00:02.080Z,1005.19
2023-03-26T13:16:01.979Z,1004.74
2023-03-26T13:31:02.015Z,1004.68
2023-03-26T13:46:01.991Z,1004.1
2023-03-26T14:00:01.873Z,1003.73
2023-03-26T14:16:01.926Z,1003.56
2023-03-26T14:31:01.953Z,1003.53
2023-03-26T14:46:01.918Z,1003.25
2023-03-26T15:00:01.869Z,1003.12
2023-03-26T15:16:01.975Z,1003.05
2023-03-26T15:31:01.906Z,1003.09
2023-03-26T15:46:01.925Z,1002.81
2023-03-26T16:00:01.898Z,1002.85
2023-03-26T16:16:01.964Z,1002.81
2023-03-26T16:31:01.959Z,1002.95
2023-03-26T16:46:02.052Z,1002.88
2023-03-26T17:00:06.303Z,1002.78
2023-03-26T17:16:02.033Z,1002.51
2023-03-26T17:31:01.983Z,1002.54
2023-03-26T17:46:03.549Z,1002.44
2023-03-26T18:00:02.001Z,1002.27
2023-03-26T18:16:02.039Z,1002.24
2023-03-26T18:31:01.887Z,1002.34
2023-03-26T18:46:01.981Z,1002.24
2023-03-26T19:00:01.914Z,1002.17
2023-03-26T19:16:01.860Z,1002.1
2023-03-26T19:31:01.922Z,1002.21
2023-03-26T19:46:01.858Z,1002.04
2023-03-26T20:00:01.893Z,1001.73
2023-03-26T20:16:05.288Z,1001.9
2023-03-26T20:31:01.915Z,1002.07
2023-03-26T20:46:01.881Z,1001.9
2023-03-26T21:00:01.912Z,1002.1
2023-03-26T21:16:01.848Z,1002.21
2023-03-26T21:31:01.867Z,1002
2023-03-26T21:46:02.889Z,1001.63
2023-03-26T22:00:01.903Z,1001.56
2023-03-26T22:16:01.940Z,1001.19
2023-03-26T22:31:01.937Z,1001.05
2023-03-26T22:46:02.009Z,1000.72
2023-03-26T23:00:01.904Z,1000.88
2023-03-26T23:16:01.920Z,1001.29
2023-03-26T23:31:01.901Z,1001.49
2023-03-26T23:46:01.931Z,1001.32
